Time;durP1;ratioP1;P1;durP2;ratioP2;P2;SDS_P1;SDS_P2;PMS_P1;PMS_P2;Temp;Humidity;BMP_temperature;BMP_pressure;BME280_temperature;BME280_humidity;BME280_pressure;Samples;Min_cycle;Max_cycle;Signal;HPM_P1;HPM_P2
2023/07/12 00:00:20;;;;;;;7.78;4.95;;;;;;;18.78;100.00;93486.34;5066417;28;20106;-74
2023/07/12 00:02:47;;;;;;;7.53;5.32;;;;;;;18.76;100.00;93477.25;5067106;28;20045;-73
2023/07/12 00:05:14;;;;;;;6.85;5.00;;;;;;;18.75;100.00;93475.69;5070522;28;20044;-73
2023/07/12 00:07:41;;;;;;;8.00;5.78;;;;;;;18.68;100.00;93465.50;5068113;28;20391;-73
2023/07/12 00:10:15;;;;;;;8.32;5.72;;;;;;;18.69;100.00;93478.25;5067119;28;20056;-73
2023/07/12 00:12:43;;;;;;;8.90;5.80;;;;;;;18.71;100.00;93480.59;5081045;28;20054;-73
2023/07/12 00:15:12;;;;;;;7.90;5.47;;;;;;;18.70;100.00;93466.81;5072855;28;20098;-73
2023/07/12 00:17:39;;;;;;;8.27;5.28;;;;;;;18.67;100.00;93469.13;5079506;28;20063;-73
2023/07/12 00:20:18;;;;;;;8.95;5.75;;;;;;;18.64;100.00;93467.03;5079496;28;20074;-74
2023/07/12 00:22:45;;;;;;;7.38;6.00;;;;;;;18.56;100.00;93466.47;5078143;28;20052;-73
2023/07/12 00:25:12;;;;;;;8.35;6.07;;;;;;;18.52;100.00;93457.59;5076962;28;20058;-74
2023/07/12 00:27:39;;;;;;;7.90;5.80;;;;;;;18.52;100.00;93449.81;5071295;28;20044;-73
2023/07/12 00:30:14;;;;;;;7.82;5.45;;;;;;;18.54;100.00;93458.16;5075308;28;20112;-74
2023/07/12 00:32:41;;;;;;;6.30;5.00;;;;;;;18.46;100.00;93450.81;5070712;28;20048;-73
2023/07/12 00:35:08;;;;;;;7.57;5.78;;;;;;;18.47;100.00;93454.22;5075108;28;20040;-74
2023/07/12 00:37:35;;;;;;;8.55;5.80;;;;;;;18.40;100.00;93450.03;5072983;28;20101;-74
2023/07/12 00:40:02;;;;;;;7.60;5.85;;;;;;;18.38;100.00;93446.13;5071193;28;20444;-74
2023/07/12 00:42:34;;;;;;;7.57;5.53;;;;;;;18.29;100.00;93443.97;5070707;28;20700;-73
2023/07/12 00:45:04;;;;;;;8.38;5.53;;;;;;;18.28;100.00;93446.81;5080534;28;20085;-73
2023/07/12 00:47:33;;;;;;;6.53;5.35;;;;;;;18.25;100.00;93437.72;5081703;28;20047;-74
2023/07/12 00:50:01;;;;;;;7.68;5.88;;;;;;;18.10;100.00;93425.41;5079785;28;20052;-73
2023/07/12 00:52:32;;;;;;;7.80;5.50;;;;;;;18.26;100.00;93443.69;5080779;28;20044;-73
2023/07/12 00:55:01;;;;;;;6.55;5.25;;;;;;;17.88;100.00;93395.09;5080442;28;20082;-73
2023/07/12 00:57:29;;;;;;;8.23;4.80;;;;;;;18.19;100.00;93435.34;5080660;28;20044;-73
2023/07/12 00:59:59;;;;;;;6.50;4.82;;;;;;;18.08;100.00;93427.47;5080818;28;20037;-73
2023/07/12 01:02:26;;;;;;;7.18;4.90;;;;;;;18.03;100.00;93423.03;5076977;28;20053;-73
2023/07/12 01:04:58;;;;;;;7.55;4.90;;;;;;;17.94;100.00;93398.53;5072401;28;20048;-73
2023/07/12 01:07:26;;;;;;;8.00;5.05;;;;;;;18.09;100.00;93426.44;5073006;28;20508;-73
2023/07/12 01:09:53;;;;;;;8.27;5.20;;;;;;;18.02;100.00;93410.25;5081113;28;20053;-73
2023/07/12 01:12:19;;;;;;;7.13;5.65;;;;;;;18.05;100.00;93421.97;5070352;28;20048;-73
2023/07/12 01:14:46;;;;;;;9.05;5.68;;;;;;;17.86;100.00;93393.78;5071849;28;20098;-73
2023/07/12 01:17:13;;;;;;;7.10;5.47;;;;;;;17.89;100.00;93396.69;5070251;28;20048;-73
2023/07/12 01:19:41;;;;;;;7.75;5.78;;;;;;;18.06;100.00;93421.75;5074518;28;20047;-73
2023/07/12 01:22:09;;;;;;;7.03;5.18;;;;;;;18.00;100.00;93412.31;5084528;28;20098;-73
2023/07/12 01:24:36;;;;;;;8.30;5.43;;;;;;;18.00;100.00;93420.91;5073936;28;20044;-73
2023/07/12 01:27:13;;;;;;;7.05;4.95;;;;;;;17.97;100.00;93418.78;5069915;28;20044;-73
2023/07/12 01:29:40;;;;;;;7.32;5.47;;;;;;;17.96;100.00;93424.25;5069799;28;20048;-74
2023/07/12 01:32:08;;;;;;;7.50;5.78;;;;;;;17.94;100.00;93418.50;5070117;28;20044;-74
2023/07/12 01:34:34;;;;;;;7.68;5.88;;;;;;;17.92;100.00;93429.19;5069556;28;20056;-74
2023/07/12 01:37:04;;;;;;;8.35;6.60;;;;;;;17.81;100.00;93415.31;5070330;28;20044;-75
2023/07/12 01:39:32;;;;;;;7.22;5.70;;;;;;;17.88;100.00;93434.06;5074595;28;20044;-74
2023/07/12 01:41:59;;;;;;;9.65;5.72;;;;;;;17.85;100.00;93426.78;5069251;28;20565;-74
2023/07/12 01:44:26;;;;;;;8.25;5.45;;;;;;;17.78;100.00;93410.63;5076230;28;20064;-74
2023/07/12 01:46:53;;;;;;;9.30;5.55;;;;;;;17.89;100.00;93427.88;5069425;28;20044;-74
2023/07/12 01:49:20;;;;;;;7.88;6.25;;;;;;;17.92;100.00;93423.97;5073199;28;20056;-74
2023/07/12 01:51:48;;;;;;;7.82;5.85;;;;;;;17.99;100.00;93429.75;5069869;28;20045;-75
2023/07/12 01:54:15;;;;;;;6.88;5.88;;;;;;;17.97;100.00;93424.00;5075948;28;20094;-74
2023/07/12 01:56:43;;;;;;;7.85;5.97;;;;;;;17.99;100.00;93429.75;5077475;28;20497;-74
2023/07/12 01:59:09;;;;;;;8.10;5.68;;;;;;;18.00;100.00;93431.31;5078355;28;20555;-74
2023/07/12 02:01:36;;;;;;;10.63;5.90;;;;;;;18.00;100.00;93435.72;5081704;28;20048;-74
2023/07/12 02:04:03;;;;;;;10.50;6.10;;;;;;;17.96;100.00;93438.03;5081216;28;20049;-74
2023/07/12 02:06:30;;;;;;;9.15;6.32;;;;;;;17.94;100.00;93439.31;5078873;28;20105;-74
2023/07/12 02:08:56;;;;;;;9.82;5.90;;;;;;;17.88;100.00;93441.09;5081396;28;20074;-74
2023/07/12 02:11:23;;;;;;;8.15;6.03;;;;;;;17.82;100.00;93442.88;5072251;28;20045;-74
2023/07/12 02:13:51;;;;;;;8.52;6.20;;;;;;;17.74;100.00;93449.31;5069167;28;20845;-75
2023/07/12 02:16:18;;;;;;;7.13;6.20;;;;;;;17.66;100.00;93438.59;5071490;28;20048;-75
2023/07/12 02:18:45;;;;;;;8.23;5.90;;;;;;;17.70;100.00;93450.06;5069665;28;20109;-75
2023/07/12 02:21:11;;;;;;;7.25;6.28;;;;;;;17.69;100.00;93445.91;5068965;28;20044;-75
2023/07/12 02:23:38;;;;;;;7.05;5.80;;;;;;;17.56;100.00;93434.09;5068811;28;20094;-74
2023/07/12 02:26:05;;;;;;;9.35;6.28;;;;;;;17.71;100.00;93457.59;5068994;28;20130;-75
2023/07/12 02:28:32;;;;;;;8.25;5.95;;;;;;;17.72;100.00;93461.78;5069011;28;20823;-75
2023/07/12 02:31:18;;;;;;;8.93;6.05;;;;;;;17.70;100.00;93460.44;5068144;28;20049;-75
2023/07/12 02:33:45;;;;;;;17.30;5.72;;;;;;;17.63;100.00;93455.44;5066900;28;20498;-74
2023/07/12 02:36:11;;;;;;;7.75;5.65;;;;;;;17.69;100.00;93462.25;5068840;28;20099;-74
2023/07/12 02:38:38;;;;;;;8.68;5.88;;;;;;;17.63;100.00;93466.63;5068723;28;20045;-74
2023/07/12 02:41:06;;;;;;;7.50;5.78;;;;;;;17.58;100.00;93469.19;5068014;28;20048;-74
2023/07/12 02:43:33;;;;;;;7.53;5.88;;;;;;;17.65;100.00;93476.78;5067985;28;20052;-74
2023/07/12 02:46:00;;;;;;;9.63;6.57;;;;;;;17.59;100.00;93478.53;5068694;28;20044;-74
2023/07/12 02:48:28;;;;;;;8.88;6.00;;;;;;;17.49;100.00;93465.47;5075225;28;20105;-74
2023/07/12 02:50:55;;;;;;;8.20;6.05;;;;;;;17.52;100.00;93480.56;5080700;28;20052;-74
2023/07/12 02:53:22;;;;;;;8.00;6.57;;;;;;;17.52;100.00;93480.56;5068927;28;20040;-74
2023/07/12 02:55:49;;;;;;;8.13;5.70;;;;;;;17.48;100.00;93482.88;5071748;28;20055;-74
2023/07/12 02:58:16;;;;;;;7.20;5.82;;;;;;;17.30;100.00;93455.44;5069316;28;20093;-74
2023/07/12 03:00:43;;;;;;;7.90;6.30;;;;;;;17.27;100.00;93465.53;5072641;28;20494;-74
2023/07/12 03:03:10;;;;;;;8.77;5.97;;;;;;;17.37;100.00;93483.81;5067978;28;20569;-75
2023/07/12 03:05:39;;;;;;;8.68;6.72;;;;;;;17.40;100.00;93487.72;5067687;28;20090;-74
2023/07/12 03:08:06;;;;;;;9.32;5.95;;;;;;;17.25;100.00;93473.56;5086255;28;20459;-74
2023/07/12 03:10:36;;;;;;;7.55;5.90;;;;;;;17.36;100.00;93488.19;5082155;28;20044;-74
2023/07/12 03:13:03;;;;;;;9.48;6.78;;;;;;;17.36;100.00;93488.19;5071804;28;20109;-74
2023/07/12 03:15:29;;;;;;;8.23;6.07;;;;;;;17.33;100.00;93491.31;5068559;28;20044;-74
2023/07/12 03:17:56;;;;;;;10.02;6.60;;;;;;;17.35;100.00;93494.44;5068219;28;20053;-74
2023/07/12 03:20:23;;;;;;;9.38;6.45;;;;;;;17.33;100.00;93493.91;5070438;28;20094;-74
2023/07/12 03:22:51;;;;;;;8.23;6.03;;;;;;;17.33;100.00;93493.91;5068231;28;20582;-74
2023/07/12 03:25:18;;;;;;;8.45;6.18;;;;;;;17.33;100.00;93503.50;5070578;28;20464;-74
2023/07/12 03:27:47;;;;;;;10.60;6.95;;;;;;;17.35;100.00;93498.81;5068315;28;20102;-74
2023/07/12 03:30:14;;;;;;;11.52;5.95;;;;;;;17.30;100.00;93489.19;5081594;28;20059;-74
2023/07/12 03:32:41;;;;;;;8.57;5.88;;;;;;;17.32;100.00;93494.13;5076332;28;20075;-75
2023/07/12 03:35:08;;;;;;;11.75;6.45;;;;;;;17.27;100.00;93494.84;5074750;28;20051;-74
2023/07/12 03:48:33;;;;;;;10.13;7.10;;;;;;;18.22;100.00;93508.41;5108673;27;20393;-73
2023/07/12 03:51:00;;;;;;;11.18;6.55;;;;;;;18.06;100.00;93510.13;5100943;28;20056;-73
2023/07/12 03:53:29;;;;;;;10.30;6.43;;;;;;;17.96;100.00;93510.78;5110140;28;20051;-73
2023/07/12 03:55:58;;;;;;;9.77;6.72;;;;;;;17.83;100.00;93506.03;5104947;28;20051;-74
2023/07/12 03:58:28;;;;;;;10.18;6.60;;;;;;;17.79;100.00;93510.13;5108295;28;20124;-74
2023/07/12 04:00:55;;;;;;;9.38;7.05;;;;;;;17.74;100.00;93514.25;5106155;28;20405;-74
2023/07/12 04:03:22;;;;;;;10.00;7.10;;;;;;;17.74;100.00;93516.09;5107384;28;20040;-74
2023/07/12 04:05:52;;;;;;;13.48;7.68;;;;;;;17.73;100.00;93515.28;5112507;28;20125;-74
2023/07/12 04:08:21;;;;;;;13.25;7.63;;;;;;;17.74;100.00;93509.06;5121239;28;20047;-75
2023/07/12 04:10:51;;;;;;;11.60;8.15;;;;;;;17.80;100.00;93511.69;5105922;28;20048;-75
2023/07/12 04:13:18;;;;;;;10.70;7.40;;;;;;;17.83;100.00;93506.78;5106794;28;20071;-74
2023/07/12 04:15:44;;;;;;;12.13;7.80;;;;;;;17.91;100.00;93515.94;5107147;28;20455;-75
2023/07/12 04:18:11;;;;;;;11.70;7.45;;;;;;;17.95;100.00;93511.06;5110993;28;20105;-75
2023/07/12 04:20:39;;;;;;;14.35;8.00;;;;;;;18.00;100.00;93508.47;5106350;28;20986;-75
2023/07/12 04:23:07;;;;;;;12.43;7.80;;;;;;;17.94;100.00;93494.69;5103974;28;20047;-75
2023/07/12 04:25:34;;;;;;;14.93;8.98;;;;;;;17.86;100.00;93471.72;5123421;27;20039;-74
2023/07/12 04:28:01;;;;;;;12.70;8.82;;;;;;;18.15;100.00;93507.88;5100486;28;20493;-75
2023/07/12 04:30:27;;;;;;;12.05;8.57;;;;;;;18.24;100.00;93508.94;5113783;28;20048;-75
2023/07/12 04:32:54;;;;;;;13.60;8.40;;;;;;;18.32;100.00;93504.34;5123145;28;20100;-75
2023/07/12 04:35:21;;;;;;;17.10;9.13;;;;;;;18.37;100.00;93512.16;5103908;28;20092;-75
2023/07/12 04:37:49;;;;;;;11.75;8.80;;;;;;;18.42;100.00;93509.56;5105497;28;20093;-75
2023/07/12 04:40:18;;;;;;;11.30;8.13;;;;;;;18.48;100.00;93511.19;5101310;28;20054;-75
2023/07/12 04:42:46;;;;;;;15.40;8.23;;;;;;;18.56;100.00;93513.31;5107965;28;20816;-75
2023/07/12 04:45:13;;;;;;;14.40;7.88;;;;;;;18.61;100.00;93503.97;5102613;28;20040;-75
2023/07/12 04:47:40;;;;;;;13.65;8.50;;;;;;;18.41;100.00;93472.41;5101118;28;20052;-75
2023/07/12 04:50:09;;;;;;;12.73;9.32;;;;;;;18.70;100.00;93511.03;5090949;28;20052;-75
2023/07/12 04:52:35;;;;;;;14.30;8.73;;;;;;;18.78;100.00;93514.97;5087920;28;20036;-75
2023/07/12 04:55:03;;;;;;;12.75;7.78;;;;;;;18.83;100.00;93515.00;5094101;28;20044;-75
2023/07/12 04:57:32;;;;;;;11.82;8.63;;;;;;;18.70;100.00;93502.44;5090377;28;20551;-75
2023/07/12 04:59:59;;;;;;;13.77;8.25;;;;;;;18.65;100.00;93507.66;5097326;28;20048;-75
2023/07/12 05:02:25;;;;;;;11.63;8.13;;;;;;;18.76;100.00;93504.06;5094981;28;20044;-75
2023/07/12 05:04:52;;;;;;;12.02;7.82;;;;;;;18.87;100.00;93499.66;5090484;28;20451;-75
2023/07/12 05:07:19;;;;;;;11.68;8.52;;;;;;;19.02;100.00;93496.34;5090538;28;20124;-76
2023/07/12 05:09:46;;;;;;;14.18;9.77;;;;;;;19.07;100.00;93501.59;5088769;28;20044;-75
2023/07/12 05:12:12;;;;;;;15.75;8.52;;;;;;;19.16;100.00;93495.91;5096772;28;20087;-78
2023/07/12 05:14:40;;;;;;;12.65;8.00;;;;;;;19.27;100.00;93494.88;5109219;28;20043;-73
2023/07/12 05:17:07;;;;;;;16.10;9.35;;;;;;;19.41;100.00;93495.19;5108490;27;20096;-73
2023/07/12 05:19:34;;;;;;;12.57;8.30;;;;;;;19.46;100.00;93502.22;5096377;28;20141;-74
2023/07/12 05:22:01;;;;;;;15.65;9.40;;;;;;;19.43;100.00;93503.50;5097293;28;20542;-74
2023/07/12 05:24:27;;;;;;;14.27;8.88;;;;;;;19.50;100.00;93498.81;5090042;28;20051;-73
2023/07/12 05:26:55;;;;;;;12.30;8.00;;;;;;;19.46;100.00;93478.75;5088478;28;20386;-73
2023/07/12 05:29:22;;;;;;;16.95;9.18;;;;;;;19.70;100.00;93496.50;5099744;28;20450;-74
2023/07/12 05:31:50;;;;;;;14.25;8.60;;;;;;;19.89;100.00;93496.78;5103074;28;21027;-73
2023/07/12 05:34:17;;;;;;;14.35;8.77;;;;;;;19.98;100.00;93495.25;5088976;28;20060;-73
2023/07/12 05:36:44;;;;;;;13.80;8.25;;;;;;;20.09;100.00;93495.25;5087733;28;20044;-74
2023/07/12 05:39:10;;;;;;;14.88;9.32;;;;;;;20.32;100.00;93491.28;5094364;28;20562;-74
2023/07/12 05:41:37;;;;;;;17.30;8.90;;;;;;;20.52;100.00;93503.53;5089896;28;20040;-74
2023/07/12 05:44:04;;;;;;;12.57;7.65;;;;;;;20.69;100.00;93497.25;5083255;28;20051;-74
2023/07/12 05:46:31;;;;;;;13.82;7.75;;;;;;;20.87;100.00;93505.56;5092566;28;20056;-74
2023/07/12 05:48:59;;;;;;;16.60;8.73;;;;;;;20.89;100.00;93506.06;5081640;28;20044;-74
2023/07/12 05:51:25;;;;;;;16.25;8.90;;;;;;;21.10;100.00;93514.59;5086546;28;20109;-74
2023/07/12 05:53:52;;;;;;;18.85;8.88;;;;;;;21.10;100.00;93504.13;5087846;28;20052;-74
2023/07/12 05:56:19;;;;;;;14.85;8.95;;;;;;;21.39;100.00;93508.72;5092426;28;20047;-73
2023/07/12 05:58:45;;;;;;;17.55;12.68;;;;;;;21.65;100.00;93515.63;5091517;28;20093;-74
2023/07/12 06:01:12;;;;;;;17.25;8.63;;;;;;;21.76;100.00;93512.69;5088514;28;20136;-74
2023/07/12 06:03:39;;;;;;;19.23;7.95;;;;;;;21.89;100.00;93513.91;5089292;28;20458;-74
2023/07/12 06:06:09;;;;;;;21.30;8.80;;;;;;;21.88;100.00;93499.28;5097631;28;20407;-74
2023/07/12 06:08:36;;;;;;;22.33;10.02;;;;;;;22.08;100.00;93513.22;5092169;28;20151;-73
2023/07/12 06:11:04;;;;;;;23.52;10.40;;;;;;;22.33;100.00;93524.56;5079684;28;20109;-74
2023/07/12 06:13:30;;;;;;;22.83;8.95;;;;;;;22.59;100.00;93520.94;5107479;28;20043;-73
2023/07/12 06:15:57;;;;;;;21.27;7.85;;;;;;;22.87;100.00;93519.31;5104607;28;20047;-73
2023/07/12 06:18:25;;;;;;;22.58;7.68;;;;;;;23.17;100.00;93521.88;5090141;28;20109;-74
2023/07/12 06:20:56;;;;;;;15.63;8.32;;;;;;;23.47;95.62;93528.59;5088954;28;20425;-74
2023/07/12 06:23:25;;;;;;;19.73;9.27;;;;;;;23.79;95.84;93522.91;5088805;28;20066;-74
2023/07/12 06:25:52;;;;;;;15.68;8.85;;;;;;;24.05;94.47;93522.50;5086322;28;20052;-74
2023/07/12 06:28:18;;;;;;;19.85;9.18;;;;;;;23.96;92.51;93496.16;5095981;28;20074;-74
2023/07/12 06:30:45;;;;;;;23.88;8.95;;;;;;;24.21;91.11;93509.97;5106447;28;20443;-74
2023/07/12 06:33:12;;;;;;;20.55;9.60;;;;;;;24.63;88.85;93510.03;5105475;28;20097;-74
2023/07/12 06:35:40;;;;;;;18.88;8.27;;;;;;;24.97;88.70;93516.00;5094591;28;20060;-74
2023/07/12 06:38:07;;;;;;;24.30;9.18;;;;;;;25.32;84.70;93517.13;5099510;28;20171;-74
2023/07/12 06:40:35;;;;;;;23.52;9.57;;;;;;;25.55;84.64;93514.56;5091951;28;20106;-74
2023/07/12 06:43:02;;;;;;;18.38;7.43;;;;;;;25.57;83.09;93520.34;5086104;28;20562;-74
2023/07/12 06:45:29;;;;;;;19.17;7.78;;;;;;;25.48;82.07;93511.56;5086099;28;20036;-74
2023/07/12 06:47:55;;;;;;;25.67;8.77;;;;;;;25.59;82.05;93496.38;5087655;28;20657;-74
2023/07/12 06:50:23;;;;;;;18.88;8.82;;;;;;;25.69;82.62;93521.66;5088363;28;20066;-74
2023/07/12 06:52:49;;;;;;;21.80;7.72;;;;;;;26.12;81.68;93515.16;5088063;28;20048;-74
2023/07/12 06:55:16;;;;;;;18.63;8.30;;;;;;;26.60;79.69;93505.81;5084601;28;20044;-74
2023/07/12 06:57:44;;;;;;;14.55;7.22;;;;;;;26.86;76.71;93512.28;5092380;28;20055;-74
2023/07/12 07:00:13;;;;;;;14.75;6.78;;;;;;;27.24;74.98;93511.00;5088291;28;20101;-74
2023/07/12 07:02:40;;;;;;;18.70;7.47;;;;;;;27.70;72.90;93516.81;5085811;28;20054;-75
2023/07/12 07:05:07;;;;;;;19.67;5.93;;;;;;;28.08;71.90;93515.38;5083633;28;20408;-74
2023/07/12 07:07:33;;;;;;;12.18;6.10;;;;;;;28.55;70.54;93509.41;5091922;28;20048;-74
2023/07/12 07:10:00;;;;;;;15.20;6.32;;;;;;;28.96;69.00;93509.91;5104942;28;20100;-75
2023/07/12 07:12:27;;;;;;;11.88;6.20;;;;;;;29.23;64.43;93521.09;5085164;28;20047;-75
2023/07/12 07:14:55;;;;;;;13.32;6.43;;;;;;;29.40;66.37;93527.41;5082306;28;20044;-74
2023/07/12 07:17:22;;;;;;;16.58;6.75;;;;;;;29.07;65.95;93529.59;5096681;28;20096;-75
2023/07/12 07:19:48;;;;;;;16.55;7.22;;;;;;;29.42;67.03;93531.25;5093745;28;20381;-74
2023/07/12 07:22:15;;;;;;;15.27;6.60;;;;;;;29.60;68.02;93529.31;5095796;28;20130;-74
2023/07/12 07:24:42;;;;;;;12.80;6.93;;;;;;;29.96;64.86;93521.09;5101754;28;20114;-75
2023/07/12 07:27:08;;;;;;;13.52;5.57;;;;;;;30.32;63.69;93530.31;5105617;28;20124;-74
2023/07/12 07:29:36;;;;;;;11.32;5.45;;;;;;;30.70;62.63;93522.44;5097718;28;20098;-74
2023/07/12 07:32:05;;;;;;;18.20;6.13;;;;;;;30.73;60.65;93527.84;5096881;28;20052;-74
2023/07/12 07:34:31;;;;;;;13.68;6.45;;;;;;;30.71;59.20;93521.31;5086377;28;20081;-74
2023/07/12 07:36:58;;;;;;;12.40;5.93;;;;;;;31.05;60.08;93522.78;5092203;28;20052;-74
2023/07/12 07:39:25;;;;;;;9.98;5.03;;;;;;;31.30;58.81;93509.53;5084728;28;20089;-74
2023/07/12 07:41:52;;;;;;;9.43;3.58;;;;;;;31.63;52.67;93526.38;5092455;28;20116;-74
2023/07/12 07:44:19;;;;;;;4.75;3.50;;;;;;;31.92;51.30;93529.09;5106023;28;20044;-74
2023/07/12 07:46:46;;;;;;;4.40;3.00;;;;;;;31.94;49.82;93508.25;5094862;28;20568;-74
2023/07/12 07:49:14;;;;;;;4.55;3.40;;;;;;;32.18;48.74;93510.03;5091132;28;20103;-75
2023/07/12 07:51:40;;;;;;;7.70;3.30;;;;;;;32.58;45.47;93526.25;5087627;28;20126;-74
2023/07/12 07:54:07;;;;;;;5.05;3.92;;;;;;;32.72;46.88;93521.25;5097724;28;20109;-75
2023/07/12 07:56:34;;;;;;;4.95;3.08;;;;;;;32.90;47.88;93520.94;5094438;28;20455;-74
2023/07/12 07:59:01;;;;;;;5.90;3.15;;;;;;;33.05;47.05;93522.81;5087240;28;20048;-74
2023/07/12 08:01:27;;;;;;;6.68;3.33;;;;;;;33.21;46.14;93516.69;5097189;28;20044;-74
2023/07/12 08:03:54;;;;;;;5.05;3.15;;;;;;;33.47;44.77;93526.00;5093757;28;20093;-74
2023/07/12 08:06:22;;;;;;;5.88;3.40;;;;;;;33.52;46.03;93528.44;5087703;28;20731;-74
2023/07/12 08:08:49;;;;;;;5.32;3.05;;;;;;;33.48;41.54;93529.41;5083280;28;20044;-74
2023/07/12 08:11:16;;;;;;;6.18;3.30;;;;;;;33.59;45.11;93525.91;5104812;28;20051;-74
2023/07/12 08:13:43;;;;;;;6.30;3.22;;;;;;;33.75;45.21;93532.28;5101969;28;20409;-74
2023/07/12 08:16:09;;;;;;;9.45;2.88;;;;;;;33.91;45.02;93535.66;5081171;28;20052;-74
2023/07/12 08:18:38;;;;;;;4.15;3.35;;;;;;;34.14;43.44;93548.31;5089834;28;20056;-74
2023/07/12 08:21:05;;;;;;;5.50;2.80;;;;;;;34.16;44.16;93540.75;5087010;28;20056;-74
2023/07/12 08:23:33;;;;;;;5.93;3.65;;;;;;;34.47;43.33;93547.00;5087836;28;20040;-75
2023/07/12 08:25:59;;;;;;;5.80;3.15;;;;;;;34.74;43.34;93546.31;5097566;28;20077;-74
2023/07/12 08:28:27;;;;;;;6.50;2.70;;;;;;;34.79;41.40;93543.34;5109236;28;20047;-75
2023/07/12 08:30:53;;;;;;;5.65;3.03;;;;;;;34.97;40.86;93540.97;5100213;27;20040;-74
2023/07/12 08:33:20;;;;;;;3.65;2.38;;;;;;;35.13;41.94;93540.09;5093038;28;20047;-74
2023/07/12 08:35:48;;;;;;;4.65;2.92;;;;;;;35.27;42.28;93542.19;5091520;28;20093;-75
2023/07/12 08:38:15;;;;;;;3.88;2.70;;;;;;;35.37;41.54;93543.47;5087166;28;20134;-74
2023/07/12 08:40:45;;;;;;;4.47;3.05;;;;;;;35.51;41.58;93540.22;5103132;28;20493;-75
2023/07/12 08:43:16;;;;;;;4.43;2.53;;;;;;;35.60;41.24;93537.28;5094450;28;20593;-75
2023/07/12 08:45:46;;;;;;;5.07;3.10;;;;;;;35.71;39.59;93546.25;5090781;28;20044;-75
2023/07/12 08:48:18;;;;;;;5.93;2.83;;;;;;;35.66;39.82;93541.22;5090424;28;20048;-75
2023/07/12 08:50:46;;;;;;;5.55;2.88;;;;;;;35.77;40.07;93538.69;5093679;28;20096;-74
2023/07/12 08:53:16;;;;;;;5.68;3.20;;;;;;;35.79;40.55;93537.19;5090005;28;20094;-75
2023/07/12 08:55:44;;;;;;;5.18;2.72;;;;;;;35.89;40.98;93535.78;5089276;28;20500;-74
2023/07/12 08:58:19;;;;;;;4.22;2.50;;;;;;;36.08;40.22;93540.19;5090873;28;20056;-74
2023/07/12 09:00:47;;;;;;;;;;;;;;;36.26;39.90;93534.28;5098715;28;20056;-74
2023/07/12 09:03:14;;;;;;;6.13;2.72;;;;;;;36.27;36.48;93538.50;5102808;28;19928;-75
2023/07/12 09:05:40;;;;;;;3.97;2.50;;;;;;;36.41;39.42;93524.50;5094416;28;20160;-75
2023/07/12 09:08:17;;;;;;;4.18;2.92;;;;;;;36.47;39.60;93522.28;5106123;28;20093;-75
2023/07/12 09:10:50;;;;;;;6.00;2.75;;;;;;;36.63;38.57;93525.50;5089890;28;20055;-75
2023/07/12 09:13:18;;;;;;;7.50;3.15;;;;;;;36.60;39.16;93522.78;5093861;28;20490;-74
2023/07/12 09:15:48;;;;;;;8.43;3.53;;;;;;;36.71;39.59;93520.19;5090454;28;20044;-75
2023/07/12 09:18:27;;;;;;;5.10;3.00;;;;;;;36.63;38.88;93527.41;5089933;28;20048;-75
2023/07/12 09:20:54;;;;;;;6.07;3.08;;;;;;;36.57;36.47;93502.09;5087553;28;20044;-75
2023/07/12 09:23:20;;;;;;;4.85;3.13;;;;;;;36.65;38.64;93506.41;5102741;28;20092;-75
2023/07/12 09:25:55;;;;;;;4.93;3.10;;;;;;;36.77;38.70;93505.34;5107681;28;20583;-75
2023/07/12 09:28:22;;;;;;;4.38;2.83;;;;;;;36.63;37.25;93512.13;5108819;28;20044;-75
2023/07/12 09:30:51;;;;;;;5.82;2.83;;;;;;;36.83;38.50;93511.13;5085453;28;20052;-75
2023/07/12 09:33:22;;;;;;;5.70;3.25;;;;;;;36.79;37.99;93505.75;5088864;28;20048;-75
2023/07/12 09:35:49;;;;;;;4.07;2.58;;;;;;;36.88;37.18;93503.50;5089630;28;20497;-75
2023/07/12 09:38:17;;;;;;;6.30;3.30;;;;;;;37.06;37.29;93500.19;5100193;28;20041;-75
2023/07/12 09:40:47;;;;;;;6.30;3.80;;;;;;;37.11;36.45;93504.47;5095957;28;20615;-75
2023/07/12 09:43:18;;;;;;;5.35;3.22;;;;;;;37.36;36.13;93501.16;5090070;28;20044;-75
2023/07/12 09:45:56;;;;;;;6.00;3.22;;;;;;;37.41;37.55;93506.94;5089755;28;20551;-75
2023/07/12 09:48:32;;;;;;;3.65;2.90;;;;;;;37.42;36.77;93500.44;5094151;28;20442;-75
2023/07/12 09:51:08;;;;;;;4.75;3.08;;;;;;;37.29;35.49;93501.88;5105903;28;20047;-75
2023/07/12 09:53:40;;;;;;;4.47;3.15;;;;;;;37.49;38.18;93496.25;5090506;28;20039;-75
2023/07/12 09:56:19;;;;;;;4.82;3.40;;;;;;;37.48;35.13;93478.63;5094309;28;20188;-75
2023/07/12 09:58:54;;;;;;;5.07;3.08;;;;;;;37.64;37.24;93499.78;5089591;28;20057;-75
2023/07/12 10:01:24;;;;;;;;;;;;;;;37.79;36.84;93500.59;5090063;28;20083;-75
2023/07/12 10:03:56;;;;;;;3.92;3.03;;;;;;;37.83;36.03;93488.75;5096406;28;20051;-75
2023/07/12 10:06:32;;;;;;;7.43;3.53;;;;;;;37.88;36.27;93484.94;5089568;28;20093;-75
2023/07/12 10:09:05;;;;;;;5.38;3.38;;;;;;;38.07;37.58;93483.88;5089863;28;20044;-75
2023/07/12 10:11:37;;;;;;;5.03;3.47;;;;;;;38.13;37.13;93478.88;5098149;28;20117;-75
2023/07/12 10:14:10;;;;;;;4.72;3.00;;;;;;;38.09;36.70;93476.19;5100005;28;20529;-75
2023/07/12 10:16:47;;;;;;;4.65;2.90;;;;;;;37.99;36.89;93476.16;5096404;28;20048;-75
2023/07/12 10:19:20;;;;;;;5.22;3.40;;;;;;;37.96;34.96;93488.41;5089078;28;20097;-75
2023/07/12 10:21:49;;;;;;;7.13;3.88;;;;;;;38.08;34.75;93485.41;5087549;28;20450;-75
2023/07/12 10:24:18;;;;;;;7.20;3.70;;;;;;;38.21;36.49;93477.00;5088825;28;20056;-75
2023/07/12 10:26:45;;;;;;;6.97;3.50;;;;;;;38.37;35.41;93487.38;5089150;28;20044;-75
2023/07/12 10:29:17;;;;;;;4.43;3.28;;;;;;;38.29;34.73;93483.91;5088908;28;20101;-75
2023/07/12 10:31:48;;;;;;;5.07;3.28;;;;;;;38.43;36.65;93480.47;5093254;28;20048;-75
2023/07/12 10:34:23;;;;;;;5.15;3.15;;;;;;;38.64;36.27;93465.56;5086326;28;20079;-75
2023/07/12 10:36:52;;;;;;;8.43;3.50;;;;;;;38.75;36.93;93466.31;5093828;28;20055;-75
2023/07/12 10:39:19;;;;;;;4.50;3.20;;;;;;;38.69;35.98;93469.78;5094627;28;20052;-75
2023/07/12 10:41:50;;;;;;;4.38;3.30;;;;;;;38.72;36.54;93469.75;5094846;28;20051;-75
2023/07/12 10:44:21;;;;;;;4.45;3.00;;;;;;;38.82;36.51;93472.84;5088630;28;20075;-75
2023/07/12 10:46:51;;;;;;;3.85;2.90;;;;;;;38.83;36.51;93463.63;5090727;28;20056;-75
2023/07/12 10:49:21;;;;;;;5.78;3.30;;;;;;;38.93;37.12;93478.19;5090027;28;20508;-75
2023/07/12 10:52:16;;;;;;;5.00;3.17;;;;;;;38.88;35.63;93474.72;5088302;28;20051;-75
2023/07/12 10:55:03;;;;;;;6.22;3.55;;;;;;;39.03;35.66;93461.31;5095945;28;20053;-75
2023/07/12 10:57:39;;;;;;;6.97;3.83;;;;;;;39.10;35.22;93463.97;5091714;28;20497;-75
2023/07/12 11:00:25;;;;;;;6.30;3.33;;;;;;;39.13;35.44;93454.38;5090761;28;20129;-75
2023/07/12 11:03:02;;;;;;;5.45;2.83;;;;;;;39.20;34.65;93457.06;5089415;28;20052;-75
2023/07/12 11:05:40;;;;;;;5.25;3.13;;;;;;;39.19;35.02;93460.13;5091859;28;20063;-75
2023/07/12 11:08:46;;;;;;;5.20;3.20;;;;;;;39.02;35.19;93452.47;5094403;28;20132;-75
2023/07/12 11:11:44;;;;;;;4.10;2.83;;;;;;;38.99;35.88;93450.56;5074893;28;20698;-75
2023/07/12 11:14:21;;;;;;;5.80;3.30;;;;;;;39.17;36.05;93449.78;5025605;28;20111;-75
2023/07/12 11:16:52;;;;;;;6.20;3.20;;;;;;;39.08;35.73;93449.41;5082527;28;20101;-75
2023/07/12 11:19:45;;;;;;;4.85;2.90;;;;;;;39.15;35.92;93439.41;5090457;28;20144;-75
2023/07/12 11:22:14;;;;;;;5.82;3.10;;;;;;;39.18;35.14;93442.50;5098289;28;20067;-75
2023/07/12 11:24:52;;;;;;;5.53;3.15;;;;;;;39.08;35.46;93431.38;5102241;28;20070;-75
2023/07/12 11:27:33;;;;;;;9.25;3.78;;;;;;;39.18;34.98;93421.75;5091655;28;20044;-75
2023/07/12 11:30:23;;;;;;;4.45;3.13;;;;;;;39.33;35.63;93435.91;5098213;28;20048;-75
2023/07/12 11:32:55;;;;;;;5.30;3.38;;;;;;;39.39;35.73;93420.94;5091365;28;20508;-75
2023/07/12 11:35:42;;;;;;;5.13;3.20;;;;;;;39.36;36.04;93410.16;5088153;28;20077;-75
2023/07/12 11:38:14;;;;;;;5.50;3.50;;;;;;;39.23;35.77;93420.59;5088635;28;20439;-75
2023/07/12 11:40:42;;;;;;;4.20;2.78;;;;;;;39.32;35.63;93415.56;5086470;28;20097;-75
2023/07/12 11:43:34;;;;;;;5.65;2.92;;;;;;;38.54;34.94;93420.69;5092655;28;20121;-75
2023/07/12 11:46:02;;;;;;;6.88;3.50;;;;;;;38.16;33.83;93413.00;5104079;28;20067;-75